createdAt,value
2018-06-24T00:00:49.644Z,990.021
2018-06-24T00:02:49.726Z,990.039
2018-06-24T00:04:50.149Z,990.038
2018-06-24T00:06:50.396Z,990.006
2018-06-24T00:08:50.478Z,990.015
2018-06-24T00:10:50.580Z,989.999
2018-06-24T00:12:49.822Z,990.005
2018-06-24T00:14:50.011Z,989.993
2018-06-24T00:16:50.146Z,989.988
2018-06-24T00:18:50.240Z,989.965
2018-06-24T00:20:50.337Z,989.929
2018-06-24T00:22:50.439Z,989.922
2018-06-24T00:24:50.573Z,989.909
2018-06-24T00:26:49.852Z,989.898
2018-06-24T00:28:49.947Z,989.899
2018-06-24T00:30:50.101Z,989.900
2018-06-24T00:32:50.173Z,989.874
2018-06-24T00:34:50.420Z,989.852
2018-06-24T00:36:49.730Z,989.845
2018-06-24T00:38:49.760Z,989.831
2018-06-24T00:40:49.838Z,989.804
2018-06-24T00:42:50.069Z,989.795
2018-06-24T00:44:50.327Z,989.769
2018-06-24T00:46:50.571Z,989.752
2018-06-24T00:48:49.644Z,989.721
2018-06-24T00:50:49.781Z,989.701
2018-06-24T00:52:49.890Z,989.673
2018-06-24T00:54:50.070Z,989.650
2018-06-24T00:56:50.359Z,989.632
2018-06-24T00:58:50.442Z,989.623
2018-06-24T01:00:50.506Z,989.601
2018-06-24T01:02:50.625Z,989.577
2018-06-24T01:04:49.954Z,989.577
2018-06-24T01:06:50.129Z,989.589
2018-06-24T01:08:50.200Z,989.588
2018-06-24T01:10:50.359Z,989.578
2018-06-24T01:12:50.556Z,989.572
2018-06-24T01:14:49.626Z,989.550
2018-06-24T01:16:49.762Z,989.516
2018-06-24T01:18:49.836Z,989.503
2018-06-24T01:20:49.947Z,989.487
2018-06-24T01:22:50.055Z,989.493
2018-06-24T01:24:50.154Z,989.507
2018-06-24T01:26:50.425Z,989.501
2018-06-24T01:28:50.508Z,989.471
2018-06-24T01:30:49.655Z,989.469
2018-06-24T01:32:49.805Z,989.452
2018-06-24T01:34:50.044Z,989.449
2018-06-24T01:36:50.301Z,989.444
2018-06-24T01:38:50.512Z,989.442
2018-06-24T01:40:49.635Z,989.447
2018-06-24T01:42:49.706Z,989.447
2018-06-24T01:44:49.797Z,989.438
2018-06-24T01:46:50.013Z,989.434
2018-06-24T01:48:50.093Z,989.423
2018-06-24T01:50:50.181Z,989.426
2018-06-24T01:52:50.221Z,989.434
2018-06-24T01:54:50.256Z,989.439
2018-06-24T01:56:50.629Z,989.441
2018-06-24T01:58:49.703Z,989.424
2018-06-24T02:00:49.836Z,989.433
2018-06-24T02:02:49.911Z,989.414
2018-06-24T02:04:50.222Z,989.410
2018-06-24T02:06:50.548Z,989.398
2018-06-24T02:08:50.135Z,989.402
2018-06-24T02:10:50.277Z,989.397
2018-06-24T02:12:50.389Z,989.344
2018-06-24T02:14:50.510Z,989.329
2018-06-24T02:16:49.683Z,989.311
2018-06-24T02:18:49.728Z,989.285
2018-06-24T02:20:49.823Z,989.269
2018-06-24T02:22:49.957Z,989.285
2018-06-24T02:24:50.053Z,989.308
2018-06-24T02:26:50.236Z,989.324
2018-06-24T02:28:50.324Z,989.326
2018-06-24T02:30:50.470Z,989.301
2018-06-24T02:32:50.602Z,989.301
2018-06-24T02:34:49.771Z,989.304
2018-06-24T02:36:50.028Z,989.298
2018-06-24T02:38:50.169Z,989.278
2018-06-24T02:40:50.284Z,989.268
2018-06-24T02:42:50.355Z,989.259
2018-06-24T02:44:50.450Z,989.261
2018-06-24T02:46:49.706Z,989.228
2018-06-24T02:48:49.853Z,989.220
2018-06-24T02:50:49.954Z,989.199
2018-06-24T02:52:50.085Z,989.190
2018-06-24T02:54:50.201Z,989.197
2018-06-24T02:56:50.513Z,989.201
2018-06-24T02:58:49.641Z,989.197
2018-06-24T03:00:49.775Z,989.196
2018-06-24T03:02:49.859Z,989.166
2018-06-24T03:04:50.073Z,989.152
2018-06-24T03:06:50.280Z,989.144
2018-06-24T03:08:50.355Z,989.142
2018-06-24T03:10:50.441Z,989.144
2018-06-24T03:12:50.600Z,989.136
2018-06-24T03:14:49.654Z,989.132
2018-06-24T03:16:49.880Z,989.156
2018-06-24T03:18:50.005Z,989.172
2018-06-24T03:20:50.043Z,989.177
2018-06-24T03:22:50.199Z,989.190
2018-06-24T03:24:50.260Z,989.218
2018-06-24T03:26:50.560Z,989.252
2018-06-24T03:28:49.643Z,989.300
2018-06-24T03:30:49.721Z,989.309
2018-06-24T03:32:49.839Z,989.323
2018-06-24T03:34:50.115Z,989.331
2018-06-24T03:36:50.230Z,989.334
2018-06-24T03:38:50.350Z,989.335
2018-06-24T03:40:50.434Z,989.333
2018-06-24T03:42:50.485Z,989.335
2018-06-24T03:44:50.557Z,989.337
2018-06-24T03:46:50.010Z,989.337
2018-06-24T03:48:50.089Z,989.326
2018-06-24T03:50:50.237Z,989.327
2018-06-24T03:52:50.331Z,989.336
2018-06-24T03:54:50.396Z,989.342
2018-06-24T03:56:50.566Z,989.337
2018-06-24T03:58:49.699Z,989.326
2018-06-24T04:00:49.825Z,989.322
2018-06-24T04:02:49.893Z,989.308
2018-06-24T04:04:50.473Z,989.304
2018-06-24T04:06:50.464Z,989.273
2018-06-24T04:08:50.539Z,989.245
2018-06-24T04:10:49.622Z,989.222
2018-06-24T04:12:49.781Z,989.208
2018-06-24T04:14:49.899Z,989.208
2018-06-24T04:16:50.193Z,989.233
2018-06-24T04:18:50.344Z,989.248
2018-06-24T04:20:50.399Z,989.270
2018-06-24T04:22:50.516Z,989.282
2018-06-24T04:24:50.555Z,989.282
2018-06-24T04:26:49.917Z,989.285
2018-06-24T04:28:50.011Z,989.267
2018-06-24T04:30:50.120Z,989.239
2018-06-24T04:32:50.203Z,989.239
2018-06-24T04:34:50.460Z,989.209
2018-06-24T04:36:49.741Z,989.210
2018-06-24T04:38:49.852Z,989.213
2018-06-24T04:40:49.907Z,989.220
2018-06-24T04:42:50.017Z,989.245
2018-06-24T04:44:50.113Z,989.248
2018-06-24T04:46:50.289Z,989.230
2018-06-24T04:48:50.344Z,989.207
2018-06-24T04:50:50.517Z,989.197
2018-06-24T04:52:50.570Z,989.211
2018-06-24T04:54:49.698Z,989.228
2018-06-24T04:56:49.967Z,989.252
2018-06-24T04:58:50.073Z,989.263
2018-06-24T05:00:50.185Z,989.278
2018-06-24T05:02:50.274Z,989.299
2018-06-24T05:04:50.540Z,989.314
2018-06-24T05:06:49.861Z,989.306
2018-06-24T05:08:49.934Z,989.326
2018-06-24T05:10:50.051Z,989.323
2018-06-24T05:12:50.147Z,989.340
2018-06-24T05:14:50.200Z,989.345
2018-06-24T05:16:50.431Z,989.332
2018-06-24T05:18:50.541Z,989.326
2018-06-24T05:20:49.698Z,989.298
2018-06-24T05:22:49.833Z,989.295
2018-06-24T05:24:49.895Z,989.286
2018-06-24T05:26:50.112Z,989.264
2018-06-24T05:28:50.216Z,989.235
2018-06-24T05:30:50.274Z,989.227
2018-06-24T05:32:50.501Z,989.201
2018-06-24T05:34:49.762Z,989.196
2018-06-24T05:36:50.497Z,989.172
2018-06-24T05:38:49.641Z,989.173
2018-06-24T05:40:49.754Z,989.184
2018-06-24T05:42:49.894Z,989.185
2018-06-24T05:44:50.032Z,989.191
2018-06-24T05:46:50.264Z,989.187
2018-06-24T05:48:50.590Z,989.168
2018-06-24T05:50:50.344Z,989.153
2018-06-24T05:52:50.415Z,989.157
2018-06-24T05:54:50.576Z,989.165
2018-06-24T05:56:49.840Z,989.167
2018-06-24T05:58:49.964Z,989.164
2018-06-24T06:00:50.145Z,989.189
2018-06-24T06:02:50.454Z,989.198
2018-06-24T06:04:50.052Z,989.187
2018-06-24T06:06:50.351Z,989.175
2018-06-24T06:08:50.403Z,989.196
2018-06-24T06:10:50.493Z,989.200
2018-06-24T06:12:50.633Z,989.194
2018-06-24T06:14:49.732Z,989.194
2018-06-24T06:16:49.909Z,989.229
2018-06-24T06:18:50.101Z,989.232
2018-06-24T06:20:50.631Z,989.225
2018-06-24T06:22:50.056Z,989.223
2018-06-24T06:24:50.567Z,989.223
2018-06-24T06:26:49.695Z,989.241
2018-06-24T06:28:49.762Z,989.226
2018-06-24T06:30:50.030Z,989.218
2018-06-24T06:32:50.442Z,989.218
2018-06-24T06:34:49.715Z,989.225
2018-06-24T06:36:50.274Z,989.239
2018-06-24T06:38:49.801Z,989.239
2018-06-24T06:40:49.954Z,989.231
2018-06-24T06:42:50.121Z,989.225
2018-06-24T06:44:50.251Z,989.233
2018-06-24T06:46:49.788Z,989.260
2018-06-24T06:48:50.074Z,989.294
2018-06-24T06:50:50.147Z,989.298
2018-06-24T06:52:50.259Z,989.299
2018-06-24T06:54:50.368Z,989.297
2018-06-24T06:56:50.607Z,989.297
2018-06-24T06:58:49.668Z,989.292
2018-06-24T07:00:49.734Z,989.279
2018-06-24T07:02:49.803Z,989.262
2018-06-24T07:04:50.096Z,989.264
2018-06-24T07:06:50.284Z,989.264
2018-06-24T07:08:50.378Z,989.270
2018-06-24T07:10:50.451Z,989.268
2018-06-24T07:12:50.540Z,989.259
2018-06-24T07:14:49.699Z,989.264
2018-06-24T07:16:49.898Z,989.254
2018-06-24T07:18:49.997Z,989.242
2018-06-24T07:20:50.120Z,989.232
2018-06-24T07:22:50.280Z,989.228
2018-06-24T07:24:50.369Z,989.210
2018-06-24T07:26:50.571Z,989.174
2018-06-24T07:28:49.723Z,989.175
2018-06-24T07:30:49.858Z,989.152
2018-06-24T07:32:50.058Z,989.141
2018-06-24T07:34:50.502Z,989.154
2018-06-24T07:36:49.854Z,989.136
2018-06-24T07:38:50.091Z,989.116
2018-06-24T07:40:50.255Z,989.112
2018-06-24T07:42:50.375Z,989.122
2018-06-24T07:44:50.516Z,989.105
2018-06-24T07:46:49.774Z,989.103
2018-06-24T07:48:49.901Z,989.097
2018-06-24T07:50:50.110Z,989.090
2018-06-24T07:52:50.259Z,989.094
2018-06-24T07:54:50.422Z,989.072
2018-06-24T07:56:49.634Z,989.055
2018-06-24T07:58:49.746Z,989.043
2018-06-24T08:00:49.881Z,989.007
2018-06-24T08:02:50.057Z,988.983
2018-06-24T08:04:50.282Z,988.982
2018-06-24T08:06:49.616Z,988.973
2018-06-24T08:08:49.774Z,988.967
2018-06-24T08:10:49.847Z,988.952
2018-06-24T08:12:49.925Z,988.971
2018-06-24T08:14:50.033Z,988.960
2018-06-24T08:16:50.217Z,988.948
2018-06-24T08:18:50.374Z,988.924
2018-06-24T08:20:49.622Z,988.924
2018-06-24T08:22:50.087Z,988.876
2018-06-24T08:24:50.476Z,988.864
2018-06-24T08:26:49.965Z,988.862
2018-06-24T08:28:50.137Z,988.854
2018-06-24T08:30:50.293Z,988.822
2018-06-24T08:32:50.384Z,988.813
2018-06-24T08:34:50.600Z,988.819
2018-06-24T08:36:49.750Z,988.823
2018-06-24T08:38:49.848Z,988.829
2018-06-24T08:40:49.965Z,988.819
2018-06-24T08:42:50.127Z,988.798
2018-06-24T08:44:50.168Z,988.778
2018-06-24T08:46:50.363Z,988.778
2018-06-24T08:48:50.456Z,988.793
2018-06-24T08:50:50.611Z,988.787
2018-06-24T08:52:49.745Z,988.800
2018-06-24T08:54:49.842Z,988.788
2018-06-24T08:56:50.110Z,988.798
2018-06-24T08:58:50.193Z,988.798
2018-06-24T09:00:50.275Z,988.785
2018-06-24T09:02:50.370Z,988.778
2018-06-24T09:04:49.624Z,988.749
2018-06-24T09:06:49.870Z,988.754
2018-06-24T09:08:49.976Z,988.763
2018-06-24T09:10:50.104Z,988.735
2018-06-24T09:12:50.251Z,988.792
2018-06-24T09:14:50.474Z,988.811
2018-06-24T09:16:49.938Z,988.814
2018-06-24T09:18:50.076Z,988.823
2018-06-24T09:20:50.162Z,988.826
2018-06-24T09:22:50.280Z,988.826
2018-06-24T09:24:50.380Z,988.836
2018-06-24T09:26:49.662Z,988.861
2018-06-24T09:28:50.014Z,988.881
2018-06-24T09:30:50.302Z,988.881
2018-06-24T09:32:50.121Z,988.875
2018-06-24T09:34:50.461Z,988.863
2018-06-24T09:36:49.769Z,988.863
2018-06-24T09:38:49.882Z,988.833
2018-06-24T09:40:49.978Z,988.804
2018-06-24T09:42:50.110Z,988.769
2018-06-24T09:44:50.179Z,988.737
2018-06-24T09:46:50.392Z,988.737
2018-06-24T09:48:50.567Z,988.723
2018-06-24T09:50:49.643Z,988.709
2018-06-24T09:52:49.918Z,988.725
2018-06-24T09:54:50.498Z,988.714
2018-06-24T09:56:49.654Z,988.731
2018-06-24T09:58:49.799Z,988.721
2018-06-24T10:00:49.944Z,988.726
2018-06-24T10:02:50.017Z,988.729
2018-06-24T10:04:50.337Z,988.737
2018-06-24T10:06:49.632Z,988.745
2018-06-24T10:08:49.824Z,988.714
2018-06-24T10:10:49.913Z,988.673
2018-06-24T10:12:50.073Z,988.650
2018-06-24T10:14:50.165Z,988.633
2018-06-24T10:16:50.497Z,988.600
2018-06-24T10:18:50.592Z,988.588
2018-06-24T10:20:49.781Z,988.524
2018-06-24T10:22:50.066Z,988.518
2018-06-24T10:24:49.767Z,988.498
2018-06-24T10:26:50.360Z,988.518
2018-06-24T10:28:50.465Z,988.490
2018-06-24T10:30:50.581Z,988.474
2018-06-24T10:32:49.663Z,988.464
2018-06-24T10:34:50.019Z,988.447
2018-06-24T10:36:50.225Z,988.435
2018-06-24T10:38:50.490Z,988.382
2018-06-24T10:40:50.608Z,988.372
2018-06-24T10:42:49.710Z,988.276
2018-06-24T10:44:49.829Z,988.234
2018-06-24T10:46:49.921Z,988.264
2018-06-24T10:48:50.047Z,988.257
2018-06-24T10:50:50.126Z,988.244
2018-06-24T10:52:50.435Z,988.204
2018-06-24T10:54:49.722Z,988.213
2018-06-24T10:56:49.907Z,988.191
2018-06-24T10:58:50.037Z,988.221
2018-06-24T11:00:50.131Z,988.226
2018-06-24T11:02:50.295Z,988.207
2018-06-24T11:04:50.536Z,988.196
2018-06-24T11:06:49.767Z,988.205
2018-06-24T11:08:49.848Z,988.219
2018-06-24T11:10:49.914Z,988.219
2018-06-24T11:12:50.110Z,988.166
2018-06-24T11:14:50.208Z,988.143
2018-06-24T11:16:50.413Z,988.094
2018-06-24T11:18:50.462Z,988.099
2018-06-24T11:20:50.597Z,988.099
2018-06-24T11:22:49.708Z,988.095
2018-06-24T11:24:49.730Z,988.039
2018-06-24T11:26:49.825Z,988.055
2018-06-24T11:28:49.911Z,988.072
2018-06-24T11:30:49.997Z,988.103
2018-06-24T11:32:50.056Z,988.103
2018-06-24T11:34:50.364Z,988.189
2018-06-24T11:36:49.614Z,988.195
2018-06-24T11:38:49.721Z,988.184
2018-06-24T11:40:49.794Z,988.167
2018-06-24T11:42:49.796Z,988.168
2018-06-24T11:44:49.885Z,988.132
2018-06-24T11:46:50.050Z,988.124
2018-06-24T11:48:50.107Z,988.097
2018-06-24T11:50:50.236Z,988.055
2018-06-24T11:52:50.297Z,987.998
2018-06-24T11:54:50.385Z,987.952
2018-06-24T11:56:49.691Z,987.943
2018-06-24T11:58:49.798Z,987.957
2018-06-24T12:00:50.157Z,987.946
2018-06-24T12:02:50.226Z,987.961
2018-06-24T12:04:50.601Z,987.967
2018-06-24T12:06:49.914Z,987.953
2018-06-24T12:08:50.157Z,987.945
2018-06-24T12:10:50.389Z,987.937
2018-06-24T12:12:49.910Z,987.943
2018-06-24T12:14:50.026Z,987.929
2018-06-24T12:16:50.198Z,987.946
2018-06-24T12:18:50.232Z,987.934
2018-06-24T12:20:50.273Z,987.922
2018-06-24T12:22:50.442Z,987.885
2018-06-24T12:24:50.464Z,987.866
2018-06-24T12:26:49.648Z,987.867
2018-06-24T12:28:49.764Z,987.838
2018-06-24T12:30:50.220Z,987.760
2018-06-24T12:32:50.558Z,987.740
2018-06-24T12:34:49.989Z,987.729
2018-06-24T12:36:50.222Z,987.691
2018-06-24T12:38:50.293Z,987.681
2018-06-24T12:40:50.381Z,987.642
2018-06-24T12:42:50.557Z,987.628
2018-06-24T12:44:49.674Z,987.548
2018-06-24T12:46:49.784Z,987.534
2018-06-24T12:48:49.895Z,987.490
2018-06-24T12:50:50.005Z,987.460
2018-06-24T12:52:50.462Z,987.436
2018-06-24T12:54:49.957Z,987.451
2018-06-24T12:56:50.204Z,987.389
2018-06-24T12:58:51.083Z,987.359
2018-06-24T13:00:53.321Z,987.330
2018-06-24T13:02:50.483Z,987.263
2018-06-24T13:04:49.679Z,987.252
2018-06-24T13:06:49.832Z,987.269
2018-06-24T13:08:50.008Z,987.243
2018-06-24T13:10:50.082Z,987.235
2018-06-24T13:12:50.166Z,987.198
2018-06-24T13:14:50.225Z,987.198
2018-06-24T13:16:50.460Z,987.269
2018-06-24T13:18:50.482Z,987.279
2018-06-24T13:20:50.566Z,987.277
2018-06-24T13:22:50.576Z,987.277
2018-06-24T13:24:49.653Z,987.269
2018-06-24T13:26:50.116Z,987.271
2018-06-24T13:28:49.775Z,987.251
2018-06-24T13:30:49.835Z,987.231
2018-06-24T13:32:49.910Z,987.165
2018-06-24T13:34:50.152Z,987.132
2018-06-24T13:36:50.337Z,987.100
2018-06-24T13:38:50.466Z,987.101
2018-06-24T13:40:49.654Z,987.098
2018-06-24T13:42:49.832Z,987.082
2018-06-24T13:44:49.984Z,987.108
2018-06-24T13:46:50.127Z,987.077
2018-06-24T13:48:50.379Z,987.094
2018-06-24T13:50:50.517Z,987.082
2018-06-24T13:52:49.677Z,987.068
2018-06-24T13:54:49.795Z,987.069
2018-06-24T13:56:49.991Z,987.077
2018-06-24T13:58:50.051Z,987.097
2018-06-24T14:00:50.285Z,987.097
2018-06-24T14:02:50.338Z,987.082
2018-06-24T14:04:50.536Z,987.043
2018-06-24T14:06:49.746Z,987.044
2018-06-24T14:08:49.839Z,987.027
2018-06-24T14:10:49.891Z,987.029
2018-06-24T14:12:50.038Z,987.009
2018-06-24T14:14:50.135Z,987.014
2018-06-24T14:16:50.332Z,986.984
2018-06-24T14:18:50.346Z,986.974
2018-06-24T14:20:50.437Z,986.924
2018-06-24T14:22:50.466Z,986.919
2018-06-24T14:24:50.518Z,986.904
2018-06-24T14:26:49.710Z,986.835
2018-06-24T14:28:49.864Z,986.811
2018-06-24T14:30:50.259Z,986.800
2018-06-24T14:32:50.315Z,986.791
2018-06-24T14:34:50.625Z,986.774
2018-06-24T14:36:49.899Z,986.736
2018-06-24T14:38:50.047Z,986.759
2018-06-24T14:40:50.145Z,986.744
2018-06-24T14:42:50.300Z,986.714
2018-06-24T14:44:50.358Z,986.717
2018-06-24T14:46:50.584Z,986.723
2018-06-24T14:48:49.670Z,986.729
2018-06-24T14:50:49.696Z,986.723
2018-06-24T14:52:49.791Z,986.702
2018-06-24T14:54:49.827Z,986.700
2018-06-24T14:56:49.968Z,986.705
2018-06-24T14:58:50.045Z,986.699
2018-06-24T15:00:50.159Z,986.689
2018-06-24T15:02:50.207Z,986.689
2018-06-24T15:04:50.524Z,986.634
2018-06-24T15:06:49.778Z,986.621
2018-06-24T15:08:49.821Z,986.593
2018-06-24T15:10:49.875Z,986.565
2018-06-24T15:12:49.967Z,986.581
2018-06-24T15:14:50.039Z,986.552
2018-06-24T15:16:50.265Z,986.552
2018-06-24T15:18:50.326Z,986.572
2018-06-24T15:20:50.346Z,986.553
2018-06-24T15:22:50.426Z,986.516
2018-06-24T15:24:50.523Z,986.517
2018-06-24T15:26:49.689Z,986.471
2018-06-24T15:28:49.797Z,986.445
2018-06-24T15:30:49.878Z,986.423
2018-06-24T15:32:50.031Z,986.380
2018-06-24T15:34:50.316Z,986.363
2018-06-24T15:36:50.542Z,986.345
2018-06-24T15:38:49.693Z,986.337
2018-06-24T15:40:49.766Z,986.319
2018-06-24T15:42:49.852Z,986.276
2018-06-24T15:44:49.954Z,986.236
2018-06-24T15:46:50.135Z,986.245
2018-06-24T15:48:50.284Z,986.268
2018-06-24T15:50:50.413Z,986.279
2018-06-24T15:52:50.528Z,986.283
2018-06-24T15:54:50.577Z,986.291
2018-06-24T15:56:49.765Z,986.290
2018-06-24T15:58:49.847Z,986.290
2018-06-24T16:00:49.911Z,986.298
2018-06-24T16:02:50.087Z,986.298
2018-06-24T16:04:50.427Z,986.247
2018-06-24T16:06:49.721Z,986.227
2018-06-24T16:08:49.913Z,986.232
2018-06-24T16:10:50.000Z,986.251
2018-06-24T16:12:50.414Z,986.233
2018-06-24T16:14:50.495Z,986.240
2018-06-24T16:16:49.818Z,986.249
2018-06-24T16:18:49.930Z,986.233
2018-06-24T16:20:50.579Z,986.225
2018-06-24T16:22:50.268Z,986.222
2018-06-24T16:24:50.347Z,986.218
2018-06-24T16:26:50.506Z,986.185
2018-06-24T16:28:50.568Z,986.184
2018-06-24T16:30:49.918Z,986.179
2018-06-24T16:32:50.503Z,986.214
2018-06-24T16:34:49.816Z,986.222
2018-06-24T16:36:49.986Z,986.238
2018-06-24T16:38:50.157Z,986.238
2018-06-24T16:40:50.225Z,986.236
2018-06-24T16:42:50.255Z,986.239
2018-06-24T16:44:50.348Z,986.255
2018-06-24T16:46:50.496Z,986.281
2018-06-24T16:48:49.661Z,986.302
2018-06-24T16:50:49.750Z,986.324
2018-06-24T16:52:49.840Z,986.314
2018-06-24T16:54:49.957Z,986.332
2018-06-24T16:56:50.166Z,986.389
2018-06-24T16:58:50.447Z,986.375
2018-06-24T17:00:50.500Z,986.334
2018-06-24T17:02:50.587Z,986.326
2018-06-24T17:04:49.991Z,986.299
2018-06-24T17:06:50.169Z,986.269
2018-06-24T17:08:50.245Z,986.276
2018-06-24T17:10:50.503Z,986.269
2018-06-24T17:12:49.847Z,986.272
2018-06-24T17:14:49.874Z,986.281
2018-06-24T17:16:50.072Z,986.246
2018-06-24T17:18:50.152Z,986.205
2018-06-24T17:20:50.249Z,986.194
2018-06-24T17:22:50.438Z,986.198
2018-06-24T17:24:50.534Z,986.197
2018-06-24T17:26:49.824Z,986.208
2018-06-24T17:28:49.880Z,986.230
2018-06-24T17:30:49.999Z,986.230
2018-06-24T17:32:50.158Z,986.235
2018-06-24T17:34:50.494Z,986.276
2018-06-24T17:36:49.714Z,986.295
2018-06-24T17:38:49.862Z,986.302
2018-06-24T17:40:49.979Z,986.302
2018-06-24T17:42:50.126Z,986.333
2018-06-24T17:44:50.272Z,986.350
2018-06-24T17:46:50.534Z,986.337
2018-06-24T17:48:49.624Z,986.344
2018-06-24T17:50:49.675Z,986.349
2018-06-24T17:52:49.789Z,986.387
2018-06-24T17:54:49.854Z,986.387
2018-06-24T17:56:50.092Z,986.399
2018-06-24T17:58:50.166Z,986.413
2018-06-24T18:00:50.283Z,986.409
2018-06-24T18:02:50.368Z,986.404
2018-06-24T18:04:49.651Z,986.395
2018-06-24T18:06:49.869Z,986.397
2018-06-24T18:08:49.942Z,986.415
2018-06-24T18:10:50.050Z,986.443
2018-06-24T18:12:50.179Z,986.457
2018-06-24T18:14:50.256Z,986.461
2018-06-24T18:16:50.529Z,986.476
2018-06-24T18:18:50.612Z,986.480
2018-06-24T18:20:49.654Z,986.474
2018-06-24T18:22:49.811Z,986.471
2018-06-24T18:24:49.881Z,986.467
2018-06-24T18:26:50.113Z,986.451
2018-06-24T18:28:50.166Z,986.449
2018-06-24T18:30:50.222Z,986.453
2018-06-24T18:32:50.285Z,986.443
2018-06-24T18:34:50.479Z,986.453
2018-06-24T18:36:49.826Z,986.454
2018-06-24T18:38:49.880Z,986.454
2018-06-24T18:40:49.929Z,986.482
2018-06-24T18:42:50.067Z,986.488
2018-06-24T18:44:50.255Z,986.478
2018-06-24T18:46:50.500Z,986.448
2018-06-24T18:48:50.536Z,986.426
2018-06-24T18:50:50.628Z,986.413
2018-06-24T18:52:49.655Z,986.407
2018-06-24T18:54:49.717Z,986.407
2018-06-24T18:56:50.074Z,986.443
2018-06-24T18:58:50.404Z,986.472
2018-06-24T19:00:50.446Z,986.510
2018-06-24T19:02:51.865Z,986.525
2018-06-24T19:04:50.284Z,986.534
2018-06-24T19:06:50.518Z,986.528
2018-06-24T19:08:49.731Z,986.549
2018-06-24T19:10:49.827Z,986.576
2018-06-24T19:12:49.879Z,986.584
2018-06-24T19:14:50.004Z,986.599
2018-06-24T19:16:50.235Z,986.621
2018-06-24T19:18:50.652Z,986.618
2018-06-24T19:20:50.300Z,986.625
2018-06-24T19:22:50.393Z,986.638
2018-06-24T19:24:50.525Z,986.636
2018-06-24T19:26:49.765Z,986.629
2018-06-24T19:28:49.898Z,986.671
2018-06-24T19:30:50.033Z,986.701
2018-06-24T19:32:50.497Z,986.716
2018-06-24T19:34:49.916Z,986.727
2018-06-24T19:36:50.037Z,986.759
2018-06-24T19:38:50.176Z,986.762
2018-06-24T19:40:50.280Z,986.862
2018-06-24T19:42:50.384Z,986.876
2018-06-24T19:44:50.477Z,986.890
2018-06-24T19:46:50.582Z,986.916
2018-06-24T19:48:49.659Z,986.926
2018-06-24T19:50:49.766Z,986.941
2018-06-24T19:52:49.803Z,986.946
2018-06-24T19:54:49.926Z,986.974
2018-06-24T19:56:50.176Z,987.005
2018-06-24T19:58:50.282Z,987.029
2018-06-24T20:00:50.415Z,987.046
2018-06-24T20:02:50.536Z,987.045
2018-06-24T20:04:49.796Z,987.065
2018-06-24T20:06:50.046Z,987.078
2018-06-24T20:08:50.174Z,987.111
2018-06-24T20:10:50.230Z,987.100
2018-06-24T20:12:50.462Z,987.114
2018-06-24T20:14:50.513Z,987.121
2018-06-24T20:16:49.683Z,987.134
2018-06-24T20:18:49.753Z,987.155
2018-06-24T20:20:49.993Z,987.158
2018-06-24T20:22:50.121Z,987.178
2018-06-24T20:24:50.177Z,987.212
2018-06-24T20:26:50.405Z,987.215
2018-06-24T20:28:50.483Z,987.217
2018-06-24T20:30:50.544Z,987.206
2018-06-24T20:32:49.631Z,987.215
2018-06-24T20:34:49.876Z,987.198
2018-06-24T20:36:50.048Z,987.216
2018-06-24T20:38:50.130Z,987.224
2018-06-24T20:40:50.185Z,987.211
2018-06-24T20:42:50.297Z,987.200
2018-06-24T20:44:50.412Z,987.218
2018-06-24T20:46:49.704Z,987.215
2018-06-24T20:48:49.835Z,987.208
2018-06-24T20:50:50.158Z,987.205
2018-06-24T20:52:49.801Z,987.205
2018-06-24T20:54:49.951Z,987.206
2018-06-24T20:56:50.106Z,987.222
2018-06-24T20:58:50.346Z,987.259
2018-06-24T21:00:50.382Z,987.289
2018-06-24T21:02:50.506Z,987.311
2018-06-24T21:04:49.717Z,987.342
2018-06-24T21:06:50.005Z,987.345
2018-06-24T21:08:50.046Z,987.374
2018-06-24T21:10:50.079Z,987.374
2018-06-24T21:12:50.133Z,987.379
2018-06-24T21:14:50.178Z,987.385
2018-06-24T21:16:50.439Z,987.372
2018-06-24T21:18:50.495Z,987.384
2018-06-24T21:20:50.584Z,987.393
2018-06-24T21:22:49.676Z,987.374
2018-06-24T21:24:50.133Z,987.368
2018-06-24T21:26:49.797Z,987.382
2018-06-24T21:28:49.858Z,987.387
2018-06-24T21:30:49.946Z,987.426
2018-06-24T21:32:50.069Z,987.431
2018-06-24T21:34:50.549Z,987.435
2018-06-24T21:36:49.737Z,987.440
2018-06-24T21:38:49.772Z,987.479
2018-06-24T21:40:49.854Z,987.487
2018-06-24T21:42:49.917Z,987.513
2018-06-24T21:44:49.966Z,987.522
2018-06-24T21:46:50.182Z,987.543
2018-06-24T21:48:50.271Z,987.543
2018-06-24T21:50:50.341Z,987.529
2018-06-24T21:52:50.380Z,987.517
2018-06-24T21:54:50.411Z,987.524
2018-06-24T21:56:50.549Z,987.539
2018-06-24T21:58:50.612Z,987.553
2018-06-24T22:00:49.736Z,987.536
2018-06-24T22:02:49.864Z,987.525
2018-06-24T22:04:50.196Z,987.498
2018-06-24T22:06:50.437Z,987.484
2018-06-24T22:08:50.468Z,987.491
2018-06-24T22:10:50.555Z,987.497
2018-06-24T22:12:49.617Z,987.512
2018-06-24T22:14:49.726Z,987.532
2018-06-24T22:16:49.897Z,987.527
2018-06-24T22:18:49.968Z,987.531
2018-06-24T22:20:50.168Z,987.527
2018-06-24T22:22:50.201Z,987.534
2018-06-24T22:24:50.265Z,987.539
2018-06-24T22:26:50.510Z,987.534
2018-06-24T22:28:49.628Z,987.525
2018-06-24T22:30:49.797Z,987.508
2018-06-24T22:32:49.942Z,987.511
2018-06-24T22:34:50.370Z,987.536
2018-06-24T22:36:50.567Z,987.565
2018-06-24T22:38:49.705Z,987.569
2018-06-24T22:40:49.782Z,987.639
2018-06-24T22:42:49.893Z,987.647
2018-06-24T22:44:49.972Z,987.640
2018-06-24T22:46:50.394Z,987.633
2018-06-24T22:48:49.981Z,987.628
2018-06-24T22:50:50.590Z,987.629
2018-06-24T22:52:49.992Z,987.629
2018-06-24T22:54:50.096Z,987.683
2018-06-24T22:56:50.303Z,987.685
2018-06-24T22:58:50.374Z,987.715
2018-06-24T23:00:50.503Z,987.727
2018-06-24T23:02:49.854Z,987.747
2018-06-24T23:04:50.164Z,987.768
2018-06-24T23:06:50.487Z,987.794
2018-06-24T23:08:49.801Z,987.790
2018-06-24T23:10:49.820Z,987.813
2018-06-24T23:12:49.921Z,987.812
2018-06-24T23:14:50.002Z,987.824
2018-06-24T23:16:50.230Z,987.821
2018-06-24T23:18:50.329Z,987.826
2018-06-24T23:20:50.406Z,987.844
2018-06-24T23:22:50.527Z,987.861
2018-06-24T23:24:50.591Z,987.866
2018-06-24T23:26:49.869Z,987.870
2018-06-24T23:28:49.930Z,987.846
2018-06-24T23:30:50.119Z,987.833
2018-06-24T23:32:50.189Z,987.823
2018-06-24T23:34:50.532Z,987.840
2018-06-24T23:36:49.818Z,987.861
2018-06-24T23:38:49.873Z,987.847
2018-06-24T23:40:49.957Z,987.855
2018-06-24T23:42:50.047Z,987.863
2018-06-24T23:44:50.130Z,987.860
2018-06-24T23:46:50.321Z,987.848
2018-06-24T23:48:50.453Z,987.833
2018-06-24T23:50:50.486Z,987.828
2018-06-24T23:52:50.534Z,987.826
2018-06-24T23:54:50.574Z,987.840
2018-06-24T23:56:49.784Z,987.828
2018-06-24T23:58:49.856Z,987.825
